Time;durP1;ratioP1;P1;durP2;ratioP2;P2;SDS_P1;SDS_P2;PMS_P1;PMS_P2;Temp;Humidity;BMP_temperature;BMP_pressure;BME280_temperature;BME280_humidity;BME280_pressure;Samples;Min_cycle;Max_cycle;Signal;HPM_P1;HPM_P2
2021/10/08 00:01:19;;;;;;;;;13.25;12.00;;;;;15.32;51.91;102293.47;5093546;27;45204;-51
2021/10/08 00:03:44;;;;;;;;;13.25;13.25;;;;;15.32;52.07;102294.38;5089736;27;46134;-48
2021/10/08 00:06:09;;;;;;;;;15.50;10.50;;;;;15.30;51.98;102292.63;5086675;27;45271;-49
2021/10/08 00:08:35;;;;;;;;;14.25;13.50;;;;;15.27;52.08;102297.06;5082121;27;45463;-50
2021/10/08 00:11:00;;;;;;;;;14.00;11.75;;;;;15.25;52.49;102290.88;5097130;27;45213;-49
2021/10/08 00:13:26;;;;;;;;;10.00;9.75;;;;;15.22;52.22;102287.38;5089511;27;45245;-50
2021/10/08 00:15:51;;;;;;;;;12.50;11.00;;;;;15.19;52.17;102290.94;5099884;27;45294;-49
2021/10/08 00:18:17;;;;;;;;;12.25;12.25;;;;;15.17;52.03;102290.09;5090340;27;45263;-50
2021/10/08 00:20:42;;;;;;;;;13.75;12.00;;;;;15.17;52.03;102294.47;5093262;27;45163;-47
2021/10/08 00:23:07;;;;;;;;;12.00;10.25;;;;;15.13;52.52;102292.75;5090786;27;46127;-48
2021/10/08 00:25:33;;;;;;;;;11.50;11.00;;;;;15.10;52.54;102289.25;5100679;27;45378;-54
2021/10/08 00:27:58;;;;;;;;;13.50;13.00;;;;;15.08;52.34;102287.50;5092938;27;45224;-47
2021/10/08 00:30:24;;;;;;;;;14.75;12.50;;;;;15.06;52.11;102290.16;5089772;27;45473;-49
2021/10/08 00:32:49;;;;;;;;;14.25;12.25;;;;;15.05;52.23;102290.19;5093728;27;46204;-51
2021/10/08 00:35:15;;;;;;;;;13.25;12.75;;;;;15.02;52.74;102296.38;5095929;27;45302;-47
2021/10/08 00:37:40;;;;;;;;;12.75;12.25;;;;;14.99;52.61;102290.22;5093903;27;45299;-49
2021/10/08 00:40:06;;;;;;;;;12.50;12.00;;;;;14.98;52.23;102299.06;5096695;27;45247;-49
2021/10/08 00:42:33;;;;;;;;;15.25;13.50;;;;;14.97;52.31;102305.25;5074426;27;46128;-51
2021/10/08 00:44:58;;;;;;;;;12.50;12.50;;;;;14.94;52.25;102299.09;5098266;27;45277;-49
2021/10/08 00:47:23;;;;;;;;;16.50;14.00;;;;;14.92;52.57;102302.66;5093149;27;45272;-50
2021/10/08 00:49:49;;;;;;;;;17.75;15.00;;;;;14.91;52.69;102292.94;5099753;27;45335;-48
2021/10/08 00:52:14;;;;;;;;;15.00;14.00;;;;;14.89;52.36;102298.25;5089923;27;47903;-51
2021/10/08 00:54:40;;;;;;;;;11.75;10.00;;;;;14.87;52.68;102301.81;5101399;27;45247;-50
2021/10/08 00:57:05;;;;;;;;;15.00;15.00;;;;;14.85;52.71;102301.78;5092603;27;45205;-50
2021/10/08 00:59:33;;;;;;;;;12.50;12.50;;;;;14.84;52.67;102302.72;5089050;27;45237;-49
2021/10/08 01:01:59;;;;;;;;;18.00;15.75;;;;;14.82;52.96;102304.47;5094143;27;45381;-51
2021/10/08 01:04:24;;;;;;;;;17.75;13.25;;;;;14.80;52.56;102300.94;5077624;27;45385;-51
2021/10/08 01:06:50;;;;;;;;;15.00;13.25;;;;;14.76;52.92;102299.22;5091740;27;45288;-48
2021/10/08 01:09:15;;;;;;;;;14.50;14.50;;;;;14.76;53.26;102302.75;5089209;27;45394;-48
2021/10/08 01:11:43;;;;;;;;;14.00;14.00;;;;;14.74;52.48;102307.19;5093632;27;47366;-48
2021/10/08 01:14:08;;;;;;;;;13.75;13.75;;;;;14.73;53.30;102297.47;5095503;27;45254;-47
2021/10/08 01:16:33;;;;;;;;;16.50;14.25;;;;;14.71;53.09;102301.03;5092113;27;45297;-50
2021/10/08 01:18:59;;;;;;;;;15.50;13.25;;;;;14.69;52.55;102292.22;5089196;27;45507;-50
2021/10/08 01:21:24;;;;;;;;;13.75;12.75;;;;;14.67;53.28;102291.38;5093060;27;45401;-50
2021/10/08 01:23:49;;;;;;;;;22.50;17.50;;;;;14.65;53.30;102291.34;5096599;27;45358;-47
2021/10/08 01:26:15;;;;;;;;;14.75;14.00;;;;;14.64;53.38;102292.22;5101307;27;45424;-49
2021/10/08 01:28:41;;;;;;;;;15.25;14.25;;;;;14.62;52.96;102286.91;5101680;27;45530;-50
2021/10/08 01:31:06;;;;;;;;;16.00;15.75;;;;;14.62;53.08;102288.69;5102696;27;45271;-48
2021/10/08 01:33:32;;;;;;;;;18.00;17.50;;;;;14.60;53.09;102291.38;5101006;27;45255;-48
2021/10/08 01:35:58;;;;;;;;;15.75;15.75;;;;;14.59;53.01;102292.25;5100338;27;45453;-51
2021/10/08 01:38:23;;;;;;;;;18.50;16.00;;;;;14.56;53.19;102292.25;5102267;27;45384;-51
2021/10/08 01:40:49;;;;;;;;;17.00;16.50;;;;;14.54;53.18;102291.41;5102479;27;46107;-51
2021/10/08 01:43:14;;;;;;;;;20.00;15.75;;;;;14.53;53.52;102288.78;5102076;27;45318;-50
2021/10/08 01:45:39;;;;;;;;;16.25;15.25;;;;;14.50;53.34;102296.72;5102328;27;45331;-51
2021/10/08 01:48:05;;;;;;;;;16.00;16.00;;;;;14.48;53.26;102288.78;5102130;27;45588;-50
2021/10/08 01:50:30;;;;;;;;;14.50;14.25;;;;;14.49;53.42;102301.13;5102225;27;45317;-51
2021/10/08 01:52:58;;;;;;;;;16.75;16.25;;;;;14.47;53.44;102298.47;5081170;27;45411;-50
2021/10/08 01:55:24;;;;;;;;;17.00;16.00;;;;;14.45;53.57;102289.69;5094545;27;45387;-51
2021/10/08 01:57:49;;;;;;;;;18.25;17.00;;;;;14.44;53.06;102290.56;5065708;27;45854;-50
2021/10/08 02:00:15;;;;;;;;;17.50;16.00;;;;;14.44;53.38;102297.63;5093949;27;45224;-51
2021/10/08 02:02:41;;;;;;;;;14.00;13.00;;;;;14.43;53.22;102293.22;5095284;27;45307;-50
2021/10/08 02:05:07;;;;;;;;;15.00;13.50;;;;;14.41;53.16;102293.22;5089718;27;45415;-50
2021/10/08 02:07:32;;;;;;;;;17.75;12.75;;;;;14.38;53.26;102287.09;5088261;27;45486;-50
2021/10/08 02:09:57;;;;;;;;;19.25;16.50;;;;;14.39;53.15;102294.13;5093339;27;46283;-49
2021/10/08 02:12:23;;;;;;;;;14.25;14.25;;;;;14.37;53.80;102294.13;5094927;27;46663;-48
2021/10/08 02:14:48;;;;;;;;;15.75;15.50;;;;;14.34;53.49;102291.50;5089864;27;45249;-50
2021/10/08 02:17:14;;;;;;;;;12.25;12.00;;;;;14.34;53.61;102291.50;5088020;27;45649;-48
2021/10/08 02:19:39;;;;;;;;;16.25;15.00;;;;;14.31;53.79;102288.88;5102759;27;45376;-50
2021/10/08 02:22:05;;;;;;;;;18.25;15.50;;;;;14.29;53.82;102291.53;5087942;27;45499;-51
2021/10/08 02:24:31;;;;;;;;;18.25;15.50;;;;;14.28;53.80;102284.47;5101289;27;45555;-52
2021/10/08 02:26:56;;;;;;;;;14.25;14.00;;;;;14.23;53.50;102285.41;5100146;27;45402;-52
2021/10/08 02:29:22;;;;;;;;;12.50;12.50;;;;;14.24;53.79;102281.88;5089342;27;46104;-53
2021/10/08 02:31:47;;;;;;;;;14.00;14.00;;;;;14.23;53.57;102291.56;5087900;27;45414;-53
2021/10/08 02:34:14;;;;;;;;;15.75;13.25;;;;;14.19;53.76;102286.28;5093240;27;45604;-51
2021/10/08 02:36:39;;;;;;;;;15.25;15.25;;;;;14.18;53.64;102289.84;5082635;27;45340;-50
2021/10/08 02:39:05;;;;;;;;;13.50;13.00;;;;;14.18;54.20;102287.19;5092536;27;45980;-51
2021/10/08 02:41:30;;;;;;;;;14.25;13.25;;;;;14.18;54.03;102287.19;5094631;27;45165;-52
2021/10/08 02:43:55;;;;;;;;;14.00;12.75;;;;;14.14;53.75;102279.25;5089715;27;45308;-52
2021/10/08 02:46:21;;;;;;;;;13.50;12.75;;;;;14.14;54.00;102288.97;5087204;27;45252;-52
2021/10/08 02:48:46;;;;;;;;;15.25;14.75;;;;;14.13;53.77;102289.84;5099063;27;45184;-49
2021/10/08 02:51:11;;;;;;;;;15.75;14.25;;;;;14.12;53.75;102283.69;5101374;27;45325;-50
2021/10/08 02:53:37;;;;;;;;;16.25;15.00;;;;;14.12;54.32;102290.72;5087592;27;45293;-58
2021/10/08 02:56:04;;;;;;;;;15.50;14.75;;;;;14.11;53.67;102288.97;5089204;27;45298;-52
2021/10/08 02:58:30;;;;;;;;;16.75;14.00;;;;;14.08;54.21;102284.56;5087017;27;46191;-49
2021/10/08 03:00:55;;;;;;;;;15.25;14.00;;;;;14.06;54.14;102289.00;5100936;27;45395;-50
2021/10/08 03:03:20;;;;;;;;;17.00;13.75;;;;;14.06;54.28;102289.00;5069534;27;45256;-51
2021/10/08 03:05:46;;;;;;;;;14.25;14.00;;;;;14.05;54.42;102291.63;5087494;27;45276;-49
2021/10/08 03:08:11;;;;;;;;;15.50;14.50;;;;;14.04;53.97;102292.53;5094353;27;45367;-48
2021/10/08 03:10:37;;;;;;;;;13.50;13.50;;;;;14.03;54.22;102288.13;5094334;27;45337;-52
2021/10/08 03:13:03;;;;;;;;;15.50;12.75;;;;;14.02;54.49;102286.38;5087399;27;45316;-52
2021/10/08 03:15:29;;;;;;;;;11.75;9.25;;;;;14.01;54.03;102285.47;5100664;27;45524;-52
2021/10/08 03:17:54;;;;;;;;;15.75;15.75;;;;;14.00;54.11;102285.50;5080513;27;45806;-51
2021/10/08 03:20:20;;;;;;;;;16.50;13.00;;;;;13.91;54.08;102287.28;5093931;27;45259;-53
2021/10/08 03:22:47;;;;;;;;;13.75;13.50;;;;;13.98;54.52;102291.66;5086153;27;45224;-50
2021/10/08 03:25:12;;;;;;;;;12.75;12.25;;;;;13.95;54.42;102290.81;5100273;27;45392;-50
2021/10/08 03:27:39;;;;;;;;;14.25;12.50;;;;;13.94;54.44;102297.84;5087498;27;45643;-51
2021/10/08 03:30:07;;;;;;;;;14.25;13.00;;;;;13.94;54.52;102292.56;5086851;27;45329;-50
2021/10/08 03:32:33;;;;;;;;;15.50;14.50;;;;;13.95;54.46;102296.09;5100863;27;45498;-50
2021/10/08 03:34:58;;;;;;;;;15.75;13.25;;;;;13.93;54.24;102290.78;5097423;27;45503;-52
2021/10/08 03:37:31;;;;;;;;;15.25;12.50;;;;;13.92;54.69;102286.41;5082329;27;46199;-49
2021/10/08 03:39:56;;;;;;;;;13.00;12.25;;;;;13.92;54.36;102297.00;5092458;27;45322;-51
2021/10/08 03:42:23;;;;;;;;;15.75;15.50;;;;;13.91;54.43;102294.31;5089545;27;45237;-49
2021/10/08 03:45:03;;;;;;;;;16.00;15.00;;;;;13.90;54.71;102295.19;5086546;27;45256;-50
2021/10/08 03:47:41;;;;;;;;;18.00;16.00;;;;;13.88;54.78;102297.84;5088815;27;45496;-52
2021/10/08 03:50:09;;;;;;;;;16.25;14.50;;;;;13.88;54.50;102292.56;5099695;27;45398;-49
2021/10/08 03:52:35;;;;;;;;;17.50;15.00;;;;;13.86;54.79;102294.38;5089160;27;45315;-49
2021/10/08 03:55:00;;;;;;;;;19.75;15.25;;;;;13.85;54.46;102287.31;5076391;28;45334;-49
2021/10/08 03:57:25;;;;;;;;;15.75;14.50;;;;;13.85;54.84;102297.88;5094334;27;46296;-52
2021/10/08 03:59:50;;;;;;;;;17.50;14.50;;;;;13.84;54.58;102298.75;5089869;27;45407;-51
2021/10/08 04:02:16;;;;;;;;;13.75;13.75;;;;;13.84;54.60;102303.19;5093205;27;45272;-50
2021/10/08 04:04:42;;;;;;;;;19.00;17.00;;;;;13.82;54.79;102304.06;5101231;27;45227;-49
2021/10/08 04:07:07;;;;;;;;;14.75;13.75;;;;;13.81;54.56;102301.41;5092669;27;46196;-50
2021/10/08 04:09:33;;;;;;;;;15.50;15.50;;;;;13.79;54.92;102300.53;5097021;27;45572;-50
2021/10/08 04:11:58;;;;;;;;;17.25;17.25;;;;;13.77;54.65;102299.66;5094714;27;45410;-52
2021/10/08 04:14:23;;;;;;;;;17.00;15.25;;;;;13.76;55.01;102303.19;5089783;27;45537;-51
2021/10/08 04:16:49;;;;;;;;;17.50;16.00;;;;;13.75;54.53;102304.09;5092821;27;45319;-49
2021/10/08 04:19:15;;;;;;;;;15.75;15.25;;;;;13.72;55.00;102306.72;5101056;27;45424;-48
2021/10/08 04:21:40;;;;;;;;;18.00;16.25;;;;;13.63;54.79;102284.75;5092739;27;45585;-53
2021/10/08 04:24:06;;;;;;;;;17.75;16.50;;;;;13.68;54.64;102294.41;5081485;27;45361;-52
2021/10/08 04:26:31;;;;;;;;;17.75;17.75;;;;;13.69;55.14;102306.75;5092185;27;45399;-52
2021/10/08 04:28:58;;;;;;;;;16.00;15.75;;;;;13.67;54.64;102304.06;5096568;27;45289;-52
2021/10/08 04:31:24;;;;;;;;;20.50;18.00;;;;;13.67;55.16;102308.50;5095011;27;45330;-51
2021/10/08 04:33:49;;;;;;;;;17.25;16.25;;;;;13.64;55.15;102312.88;5089629;27;45528;-52
2021/10/08 04:36:14;;;;;;;;;17.25;15.75;;;;;13.63;54.70;102313.78;5100333;27;46292;-52
2021/10/08 04:38:40;;;;;;;;;17.50;17.25;;;;;13.61;54.82;102307.63;5089749;27;45234;-49
2021/10/08 04:41:05;;;;;;;;;17.50;15.25;;;;;13.60;55.03;102305.00;5073394;28;45254;-52
2021/10/08 04:43:31;;;;;;;;;16.00;15.00;;;;;13.60;54.95;102310.28;5096270;27;45389;-51
2021/10/08 04:45:56;;;;;;;;;18.75;17.75;;;;;13.58;55.27;102310.25;5094744;27;46359;-51
2021/10/08 04:48:21;;;;;;;;;17.50;16.50;;;;;13.57;55.20;102307.63;5089412;27;45266;-52
2021/10/08 04:50:47;;;;;;;;;17.00;16.25;;;;;13.55;54.88;102304.13;5103434;27;45263;-52
2021/10/08 04:53:21;;;;;;;;;18.50;15.50;;;;;13.54;55.17;102308.50;5089476;27;45413;-50
2021/10/08 04:55:48;;;;;;;;;15.50;15.50;;;;;13.54;55.15;102302.38;5092397;27;46362;-52
2021/10/08 04:58:14;;;;;;;;;22.25;18.50;;;;;13.52;55.18;102310.28;5102018;27;45342;-51
2021/10/08 05:00:40;;;;;;;;;19.50;18.50;;;;;13.52;55.10;102314.69;5092363;27;45347;-53
2021/10/08 05:03:23;;;;;;;;;16.25;16.00;;;;;13.49;55.10;102316.44;5096022;27;45394;-51
2021/10/08 05:05:53;;;;;;;;;14.75;14.75;;;;;13.48;55.31;102317.34;5095846;27;46242;-49
2021/10/08 05:08:20;;;;;;;;;17.75;16.00;;;;;13.48;55.04;102321.72;5089886;27;45170;-53
2021/10/08 05:10:46;;;;;;;;;15.75;14.50;;;;;13.46;55.44;102316.44;5089470;27;45276;-54
2021/10/08 05:13:12;;;;;;;;;17.50;17.25;;;;;13.44;54.89;102315.56;5094476;27;45553;-51
2021/10/08 05:15:38;;;;;;;;;18.50;16.00;;;;;13.44;55.09;102312.06;5095728;27;45402;-49
2021/10/08 05:18:03;;;;;;;;;19.50;18.00;;;;;13.43;55.52;102307.66;5090863;27;45327;-51
2021/10/08 05:20:29;;;;;;;;;18.75;16.25;;;;;13.42;55.20;102308.53;5089307;27;45383;-49
2021/10/08 05:22:54;;;;;;;;;20.00;18.00;;;;;13.41;55.15;102314.69;5099840;27;45362;-49
2021/10/08 05:25:19;;;;;;;;;24.50;19.50;;;;;13.40;55.58;102316.44;5100841;27;45398;-48
2021/10/08 05:27:45;;;;;;;;;21.25;17.00;;;;;13.40;55.09;102318.22;5090555;27;45312;-48
2021/10/08 05:30:11;;;;;;;;;20.00;19.25;;;;;13.38;55.30;102317.34;5089034;27;45378;-52
2021/10/08 05:32:38;;;;;;;;;22.50;18.25;;;;;13.37;55.45;102320.81;5093874;27;45480;-51
2021/10/08 05:35:04;;;;;;;;;18.75;17.25;;;;;13.31;55.48;102314.66;5094827;27;45372;-47
2021/10/08 05:37:29;;;;;;;;;15.00;14.00;;;;;13.36;55.45;102316.41;5088679;27;45369;-51
2021/10/08 05:39:55;;;;;;;;;23.50;18.00;;;;;13.31;55.37;102312.03;5097706;27;45637;-49
2021/10/08 05:42:20;;;;;;;;;19.50;18.75;;;;;13.34;55.39;102321.69;5090534;27;45217;-50
2021/10/08 05:44:45;;;;;;;;;21.00;18.25;;;;;13.35;55.66;102317.31;5101955;27;45252;-50
2021/10/08 05:47:11;;;;;;;;;20.50;17.25;;;;;13.33;55.71;102319.94;5093736;27;45215;-49
2021/10/08 05:49:36;;;;;;;;;21.75;16.25;;;;;13.32;55.54;102320.84;5079046;27;45441;-49
2021/10/08 05:52:02;;;;;;;;;21.00;18.75;;;;;13.32;55.71;102321.72;5095453;27;45587;-50
2021/10/08 05:54:27;;;;;;;;;17.00;15.50;;;;;13.32;55.93;102324.34;5076640;27;47520;-49
2021/10/08 05:56:52;;;;;;;;;15.25;15.25;;;;;13.32;55.75;102320.84;5089678;27;45322;-50
2021/10/08 05:59:18;;;;;;;;;22.25;18.00;;;;;13.31;55.38;102319.94;5088495;27;45400;-50
2021/10/08 06:01:43;;;;;;;;;17.25;17.00;;;;;13.31;55.56;102321.72;5095184;27;45552;-47
2021/10/08 06:04:09;;;;;;;;;25.00;19.75;;;;;13.29;55.47;102319.06;5095126;27;45989;-49
2021/10/08 06:06:35;;;;;;;;;28.50;26.75;;;;;13.30;55.84;102323.47;5088302;27;45426;-48
2021/10/08 06:09:01;;;;;;;;;24.25;19.75;;;;;13.27;55.58;102328.75;5070176;27;45373;-47
2021/10/08 06:11:28;;;;;;;;;19.25;18.00;;;;;13.29;55.56;102326.97;5088558;27;46202;-50
2021/10/08 06:13:53;;;;;;;;;23.00;19.25;;;;;13.28;55.48;102335.81;5087571;27;45712;-52
2021/10/08 06:16:19;;;;;;;;;20.50;19.25;;;;;13.29;55.65;102328.75;5083583;27;45420;-49
2021/10/08 06:18:44;;;;;;;;;21.00;19.25;;;;;13.30;55.69;102335.78;5093998;27;45473;-51
2021/10/08 06:21:09;;;;;;;;;23.00;23.00;;;;;13.30;55.50;102338.44;5087708;27;45172;-50
2021/10/08 06:23:35;;;;;;;;;24.50;21.25;;;;;13.29;56.03;102344.59;5099114;27;45386;-52
2021/10/08 06:26:00;;;;;;;;;25.75;21.00;;;;;13.29;55.85;102350.72;5094748;27;45192;-50
2021/10/08 06:28:26;;;;;;;;;28.25;28.25;;;;;13.30;55.75;102347.22;5094761;27;45416;-51
2021/10/08 06:30:52;;;;;;;;;24.00;22.75;;;;;13.29;55.96;102345.44;5088628;27;45244;-53
2021/10/08 06:33:17;;;;;;;;;24.50;19.75;;;;;13.29;56.05;102345.44;5094049;27;45614;-48
2021/10/08 06:35:43;;;;;;;;;24.25;20.25;;;;;13.30;55.75;102359.56;5072745;28;45613;-50
2021/10/08 06:38:10;;;;;;;;;25.25;24.25;;;;;13.28;55.67;102346.38;5095241;27;45335;-47
2021/10/08 06:40:36;;;;;;;;;23.25;21.75;;;;;13.28;55.97;102353.38;5088567;27;45345;-51
2021/10/08 06:43:02;;;;;;;;;24.00;22.75;;;;;13.29;55.77;102344.59;5082896;27;47325;-52
2021/10/08 06:45:28;;;;;;;;;30.75;26.50;;;;;13.29;56.11;102356.00;5082732;27;45530;-52
2021/10/08 06:47:54;;;;;;;;;29.25;27.25;;;;;13.31;56.15;102358.69;5101598;27;45369;-52
2021/10/08 06:50:20;;;;;;;;;25.75;24.50;;;;;13.31;55.88;102350.75;5101147;27;45240;-50
2021/10/08 06:52:45;;;;;;;;;25.50;24.25;;;;;13.32;55.99;102363.97;5088320;27;45344;-50
2021/10/08 06:55:11;;;;;;;;;29.00;26.50;;;;;13.33;56.03;102351.63;5094349;27;45244;-52
2021/10/08 06:57:36;;;;;;;;;27.00;24.75;;;;;13.33;56.11;102357.81;5095183;27;45330;-51
2021/10/08 07:00:03;;;;;;;;;32.75;30.50;;;;;13.36;56.30;102361.28;5087432;27;45652;-49
2021/10/08 07:02:29;;;;;;;;;32.75;30.25;;;;;13.35;56.21;102357.78;5087730;27;46086;-50
2021/10/08 07:04:54;;;;;;;;;27.00;26.50;;;;;13.36;56.40;102356.00;5094311;27;45311;-52
2021/10/08 07:07:19;;;;;;;;;32.50;29.75;;;;;13.38;56.23;102364.88;5094037;27;45228;-52
2021/10/08 07:09:45;;;;;;;;;25.00;24.00;;;;;13.41;56.11;102370.13;5087202;27;45326;-52
2021/10/08 07:12:10;;;;;;;;;30.25;28.00;;;;;13.42;56.36;102366.63;5087546;27;45943;-50
2021/10/08 07:14:35;;;;;;;;;33.25;28.25;;;;;13.42;56.04;102366.63;5075310;28;45342;-50
2021/10/08 07:17:01;;;;;;;;;31.25;28.50;;;;;13.42;56.58;102369.25;5094218;27;45307;-51
2021/10/08 07:19:28;;;;;;;;;29.75;25.75;;;;;13.47;56.24;102372.78;5087251;27;45334;-50
2021/10/08 07:21:53;;;;;;;;;25.00;25.00;;;;;13.48;56.54;102377.19;5086870;27;46170;-50
2021/10/08 07:24:19;;;;;;;;;31.25;29.50;;;;;13.52;56.37;102376.31;5099138;27;45366;-50
2021/10/08 07:26:44;;;;;;;;;30.25;28.00;;;;;13.52;56.59;102375.41;5087394;27;45419;-49
2021/10/08 07:29:10;;;;;;;;;29.25;27.00;;;;;13.53;56.53;102371.91;5093599;27;45232;-48
2021/10/08 07:31:35;;;;;;;;;21.25;20.75;;;;;13.58;56.71;102376.28;5092629;27;45281;-50
2021/10/08 07:34:00;;;;;;;;;27.00;25.75;;;;;13.58;56.16;102375.41;5086962;27;45337;-47
2021/10/08 07:36:26;;;;;;;;;27.75;25.50;;;;;13.62;56.07;102379.81;5084298;27;45355;-49
2021/10/08 07:38:51;;;;;;;;;31.00;28.00;;;;;13.64;56.14;102384.22;5094055;27;45235;-51
2021/10/08 07:41:17;;;;;;;;;29.75;27.00;;;;;13.67;56.26;102379.81;5075499;27;47279;-51
2021/10/08 07:43:42;;;;;;;;;33.00;28.75;;;;;13.69;56.63;102373.66;5093640;27;45347;-49
2021/10/08 07:46:10;;;;;;;;;31.75;30.25;;;;;13.71;56.40;102376.28;5075446;27;45481;-50
2021/10/08 07:48:37;;;;;;;;;31.50;30.25;;;;;13.74;56.59;102377.16;5086923;27;45401;-52
2021/10/08 07:51:03;;;;;;;;;29.00;27.00;;;;;13.77;56.67;102377.19;5100434;27;46164;-49
2021/10/08 07:53:28;;;;;;;;;27.00;26.25;;;;;13.80;56.43;102373.66;5086465;27;45328;-50
2021/10/08 07:55:55;;;;;;;;;29.50;26.75;;;;;13.85;56.33;102376.25;5088581;27;45191;-50
2021/10/08 07:58:26;;;;;;;;;26.75;24.25;;;;;13.89;56.81;102373.63;5094292;27;45226;-49
2021/10/08 08:00:53;;;;;;;;;25.25;25.25;;;;;13.91;56.37;102379.78;5083936;27;48008;-50
2021/10/08 08:03:18;;;;;;;;;36.25;31.75;;;;;13.96;56.45;102370.09;5093466;27;45485;-52
2021/10/08 08:05:44;;;;;;;;;29.25;25.00;;;;;14.02;56.94;102376.22;5074783;27;45466;-53
2021/10/08 08:08:09;;;;;;;;;25.75;25.75;;;;;14.03;56.79;102367.44;5086435;27;45212;-47
2021/10/08 08:10:35;;;;;;;;;29.75;29.50;;;;;14.11;56.53;102369.16;5086700;27;45359;-47
2021/10/08 08:13:00;;;;;;;;;27.00;25.00;;;;;14.17;56.40;102362.97;5074696;28;45356;-50
2021/10/08 08:15:25;;;;;;;;;30.25;26.25;;;;;14.22;56.43;102369.13;5074591;27;45490;-53
2021/10/08 08:17:51;;;;;;;;;32.25;30.00;;;;;14.27;56.54;102363.81;5086323;27;45586;-50
2021/10/08 08:20:16;;;;;;;;;30.50;27.00;;;;;14.32;56.56;102369.09;5099917;27;46313;-49
2021/10/08 08:22:41;;;;;;;;;32.00;27.75;;;;;14.40;56.51;102373.47;5079935;27;45174;-51
2021/10/08 08:25:07;;;;;;;;;30.00;28.25;;;;;14.45;56.82;102368.13;5100308;27;45165;-52
2021/10/08 08:27:33;;;;;;;;;34.00;32.25;;;;;14.52;56.79;102369.88;5086309;27;45165;-52
2021/10/08 08:29:58;;;;;;;;;29.50;27.00;;;;;14.58;56.35;102369.84;5086569;27;46557;-49
2021/10/08 08:32:25;;;;;;;;;30.25;27.75;;;;;14.63;56.66;102367.19;5093078;27;45392;-49
2021/10/08 08:34:51;;;;;;;;;25.00;23.00;;;;;14.70;56.33;102368.06;5089806;27;45256;-52
2021/10/08 08:37:16;;;;;;;;;28.50;26.75;;;;;14.78;56.65;102371.56;5092771;27;45564;-51
2021/10/08 08:39:42;;;;;;;;;29.25;27.50;;;;;14.88;56.67;102370.59;5092784;27;46021;-49
2021/10/08 08:42:09;;;;;;;;;27.75;26.75;;;;;14.94;56.94;102365.28;5086014;27;45329;-49
2021/10/08 08:44:35;;;;;;;;;31.00;28.50;;;;;15.04;56.87;102371.38;5067663;27;45262;-50
2021/10/08 08:47:00;;;;;;;;;28.00;26.50;;;;;15.11;56.58;102366.91;5096268;27;45575;-51
2021/10/08 08:49:26;;;;;;;;;26.00;23.50;;;;;15.23;56.64;102371.22;5096424;27;45355;-52
2021/10/08 08:51:52;;;;;;;;;22.50;20.00;;;;;15.33;56.83;102369.41;5079094;28;45295;-50
2021/10/08 08:54:18;;;;;;;;;24.25;23.00;;;;;15.43;56.48;102371.97;5095313;27;45287;-51
2021/10/08 08:56:44;;;;;;;;;26.25;23.50;;;;;15.53;56.72;102367.44;5078934;27;45371;-52
2021/10/08 08:59:11;;;;;;;;;20.50;19.75;;;;;15.65;56.66;102370.91;5094531;27;45989;-51
2021/10/08 09:02:03;;;;;;;;;19.25;17.75;;;;;15.76;56.42;102369.88;5089159;27;45363;-50
2021/10/08 09:04:29;;;;;;;;;19.00;18.25;;;;;15.88;56.09;102360.94;5089380;27;45380;-49
2021/10/08 09:06:56;;;;;;;;;19.50;19.00;;;;;15.99;56.19;102360.84;5084530;27;45487;-49
2021/10/08 09:09:23;;;;;;;;;24.25;19.00;;;;;16.11;56.55;102359.81;5098954;27;45373;-52
2021/10/08 09:11:50;;;;;;;;;18.00;16.75;;;;;16.24;56.21;102360.56;5074399;27;45485;-48
2021/10/08 09:14:17;;;;;;;;;17.00;16.00;;;;;16.36;56.53;102348.91;5088721;27;45386;-51
2021/10/08 09:17:08;;;;;;;;;20.00;13.75;;;;;16.49;56.07;102355.81;5092068;27;45307;-50
2021/10/08 09:20:00;;;;;;;;;51.25;43.00;;;;;16.63;56.02;102354.72;5084430;27;46044;-55
2021/10/08 09:22:32;;;;;;;;;16.75;15.25;;;;;16.76;55.97;102348.38;5088847;27;45377;-49
2021/10/08 09:25:11;;;;;;;;;14.75;14.00;;;;;16.90;56.05;102346.41;5102733;27;45387;-49
2021/10/08 09:27:37;;;;;;;;;16.25;14.75;;;;;17.04;56.00;102350.63;5089309;27;45257;-48
2021/10/08 09:30:04;;;;;;;;;11.50;11.50;;;;;17.17;56.00;102348.69;5088632;27;45381;-51
2021/10/08 09:32:58;;;;;;;;;11.50;11.50;;;;;17.32;55.70;102347.50;5094878;27;45379;-50
2021/10/08 09:35:26;;;;;;;;;11.50;11.25;;;;;17.47;55.78;102341.06;5097459;27;45482;-50
2021/10/08 09:38:04;;;;;;;;;11.50;10.00;;;;;17.60;55.53;102345.25;5090207;27;45510;-51
2021/10/08 09:40:32;;;;;;;;;12.25;12.25;;;;;17.74;55.47;102339.69;5089369;27;46308;-51
2021/10/08 09:43:00;;;;;;;;;12.25;11.00;;;;;17.87;55.77;102335.91;5088373;27;45401;-48
2021/10/08 09:45:40;;;;;;;;;11.75;11.75;;;;;18.00;55.65;102331.22;5094392;27;45438;-49
2021/10/08 09:48:07;;;;;;;;;14.50;13.00;;;;;18.15;55.23;102323.81;5096091;27;45671;-51
2021/10/08 09:50:33;;;;;;;;;10.25;9.00;;;;;18.30;55.51;102333.28;5102213;27;46274;-49
2021/10/08 09:53:10;;;;;;;;;12.75;10.25;;;;;18.45;55.50;102332.06;5053251;27;45274;-50
2021/10/08 09:55:36;;;;;;;;;13.25;10.50;;;;;18.58;55.28;102333.56;5091551;27;45454;-52
2021/10/08 09:58:01;;;;;;;;;16.50;13.00;;;;;18.71;55.35;102320.84;5096252;27;45202;-52
2021/10/08 10:00:47;;;;;;;;;9.75;9.25;;;;;18.85;55.16;102320.50;5091254;27;46294;-51
2021/10/08 10:03:18;;;;;;;;;12.00;11.00;;;;;18.94;54.70;102308.78;5088184;27;45253;-53
2021/10/08 10:05:45;;;;;;;;;10.50;9.50;;;;;19.11;54.74;102317.22;5088609;27;45303;-49
2021/10/08 10:08:11;;;;;;;;;9.50;7.75;;;;;19.23;55.20;102317.84;5095124;27;45244;-48
2021/10/08 10:10:38;;;;;;;;;8.50;8.50;;;;;19.36;54.97;102313.06;5094973;27;45349;-53
2021/10/08 10:13:06;;;;;;;;;8.25;8.25;;;;;19.48;54.49;102320.72;5088107;27;45412;-51
2021/10/08 10:15:35;;;;;;;;;8.75;8.50;;;;;19.58;54.07;102316.91;5101066;27;45354;-52
2021/10/08 10:18:05;;;;;;;;;9.00;8.75;;;;;19.73;54.28;102317.41;5071119;27;45756;-49
2021/10/08 10:20:37;;;;;;;;;5.00;5.00;;;;;19.84;54.11;102312.69;5087591;27;46315;-49
2021/10/08 10:23:07;;;;;;;;;5.75;5.75;;;;;19.96;54.34;102307.00;5099045;27;45278;-50
2021/10/08 10:25:34;;;;;;;;;5.25;5.25;;;;;20.06;54.28;102299.59;5098348;27;45566;-48
2021/10/08 10:27:59;;;;;;;;;5.75;5.00;;;;;20.18;54.25;102302.81;5091204;27;45154;-52
2021/10/08 10:30:26;;;;;;;;;7.00;7.00;;;;;20.29;53.52;102303.38;5087793;27;45771;-50
2021/10/08 10:32:52;;;;;;;;;5.75;5.75;;;;;20.42;53.94;102306.53;5091181;27;45367;-51
2021/10/08 10:35:41;;;;;;;;;5.00;5.00;;;;;20.53;53.37;102308.88;5095076;27;45341;-52
2021/10/08 10:38:24;;;;;;;;;7.00;7.00;;;;;20.66;53.32;102310.22;5087896;27;45532;-52
2021/10/08 10:41:07;;;;;;;;;7.25;6.25;;;;;20.77;53.08;102296.56;5091928;27;46640;-51
2021/10/08 10:43:35;;;;;;;;;7.25;6.00;;;;;20.90;53.21;102305.03;5094091;27;45162;-52
2021/10/08 10:51:58;;;;;;;;;5.00;4.00;;;;;21.30;52.82;102301.03;5095893;27;46053;-51
2021/10/08 10:54:38;;;;;;;;;8.00;7.50;;;;;21.43;52.85;102301.47;5094022;27;45220;-48
2021/10/08 10:57:33;;;;;;;;;6.00;6.00;;;;;21.55;52.78;102294.81;5090600;27;45492;-52
2021/10/08 11:00:13;;;;;;;;;6.25;6.00;;;;;21.70;52.93;102291.59;5086998;27;45416;-50
2021/10/08 11:02:40;;;;;;;;;9.50;7.00;;;;;21.83;52.61;102294.69;5087415;27;46539;-51
2021/10/08 11:05:20;;;;;;;;;8.50;8.50;;;;;21.96;52.74;102287.09;5100920;27;45345;-52
2021/10/08 11:08:10;;;;;;;;;9.50;7.00;;;;;22.12;52.33;102298.06;5100806;27;45178;-53
2021/10/08 11:10:39;;;;;;;;;7.00;5.25;;;;;22.26;52.26;102294.00;5100850;27;45271;-52
2021/10/08 11:13:27;;;;;;;;;6.75;6.75;;;;;22.40;52.59;102281.84;5087220;27;46299;-52
2021/10/08 11:16:10;;;;;;;;;5.25;4.25;;;;;22.54;52.03;102272.38;5086977;27;45394;-51
2021/10/08 11:18:49;;;;;;;;;5.25;4.25;;;;;22.69;52.10;102282.47;5088066;27;45419;-50